sensor_id;sensor_type;location;lat;lon;timestamp;temperature;humidity
41058;DHT22;66768;48.884;2.258;2024-03-02T00:01:26;8.90;99.90
41058;DHT22;66768;48.884;2.258;2024-03-02T00:03:53;8.90;99.90
41058;DHT22;66768;48.884;2.258;2024-03-02T00:06:20;8.80;99.90
41058;DHT22;66768;48.884;2.258;2024-03-02T00:08:47;8.90;99.90
41058;DHT22;66768;48.884;2.258;2024-03-02T00:11:14;8.80;99.90
41058;DHT22;66768;48.884;2.258;2024-03-02T00:13:42;8.90;99.90
41058;DHT22;66768;48.884;2.258;2024-03-02T00:16:08;8.80;99.90
41058;DHT22;66768;48.884;2.258;2024-03-02T00:18:38;8.80;99.90
41058;DHT22;66768;48.884;2.258;2024-03-02T00:21:07;8.80;99.90
41058;DHT22;66768;48.884;2.258;2024-03-02T00:23:36;8.80;99.90
41058;DHT22;66768;48.884;2.258;2024-03-02T00:26:04;8.80;99.90
41058;DHT22;66768;48.884;2.258;2024-03-02T00:28:33;8.80;99.90
41058;DHT22;66768;48.884;2.258;2024-03-02T00:31:04;8.80;99.90
41058;DHT22;66768;48.884;2.258;2024-03-02T00:33:32;8.70;99.90
41058;DHT22;66768;48.884;2.258;2024-03-02T00:36:01;8.80;99.90
41058;DHT22;66768;48.884;2.258;2024-03-02T00:38:29;8.70;99.90
41058;DHT22;66768;48.884;2.258;2024-03-02T00:40:58;8.80;99.90
41058;DHT22;66768;48.884;2.258;2024-03-02T00:43:45;8.80;99.90
41058;DHT22;66768;48.884;2.258;2024-03-02T00:46:13;8.70;99.90
41058;DHT22;66768;48.884;2.258;2024-03-02T00:48:53;8.70;99.90
41058;DHT22;66768;48.884;2.258;2024-03-02T00:51:22;8.80;99.90
41058;DHT22;66768;48.884;2.258;2024-03-02T00:53:50;8.80;99.90
41058;DHT22;66768;48.884;2.258;2024-03-02T00:56:18;8.80;99.90
41058;DHT22;66768;48.884;2.258;2024-03-02T00:58:46;8.80;99.90
41058;DHT22;66768;48.884;2.258;2024-03-02T01:01:13;8.80;99.90
41058;DHT22;66768;48.884;2.258;2024-03-02T01:03:41;8.80;99.90
41058;DHT22;66768;48.884;2.258;2024-03-02T01:06:08;8.80;99.90
41058;DHT22;66768;48.884;2.258;2024-03-02T01:08:37;8.70;99.90
41058;DHT22;66768;48.884;2.258;2024-03-02T01:11:04;8.70;99.90
41058;DHT22;66768;48.884;2.258;2024-03-02T01:13:31;8.70;99.90
41058;DHT22;66768;48.884;2.258;2024-03-02T01:15:59;8.70;99.90
41058;DHT22;66768;48.884;2.258;2024-03-02T01:18:26;8.70;99.90
41058;DHT22;66768;48.884;2.258;2024-03-02T01:20:53;8.70;99.90
41058;DHT22;66768;48.884;2.258;2024-03-02T01:23:21;8.70;99.90
41058;DHT22;66768;48.884;2.258;2024-03-02T01:25:50;8.60;99.90
41058;DHT22;66768;48.884;2.258;2024-03-02T01:28:17;8.70;99.90
41058;DHT22;66768;48.884;2.258;2024-03-02T01:30:44;8.70;99.90
41058;DHT22;66768;48.884;2.258;2024-03-02T01:33:11;8.70;99.90
41058;DHT22;66768;48.884;2.258;2024-03-02T01:35:38;8.70;99.90
41058;DHT22;66768;48.884;2.258;2024-03-02T01:38:05;8.70;99.90
41058;DHT22;66768;48.884;2.258;2024-03-02T01:40:33;8.70;99.90
41058;DHT22;66768;48.884;2.258;2024-03-02T01:43:02;8.70;99.90
41058;DHT22;66768;48.884;2.258;2024-03-02T01:45:28;8.70;99.90
41058;DHT22;66768;48.884;2.258;2024-03-02T01:47:55;8.70;99.90
41058;DHT22;66768;48.884;2.258;2024-03-02T01:50:26;8.80;99.90
41058;DHT22;66768;48.884;2.258;2024-03-02T01:52:54;8.80;99.90
41058;DHT22;66768;48.884;2.258;2024-03-02T01:55:21;8.80;99.90
41058;DHT22;66768;48.884;2.258;2024-03-02T01:57:48;8.80;99.90
41058;DHT22;66768;48.884;2.258;2024-03-02T02:00:18;8.70;99.90
41058;DHT22;66768;48.884;2.258;2024-03-02T02:02:45;8.80;99.90
41058;DHT22;66768;48.884;2.258;2024-03-02T02:05:12;8.70;99.90
41058;DHT22;66768;48.884;2.258;2024-03-02T02:07:40;8.70;99.90
41058;DHT22;66768;48.884;2.258;2024-03-02T02:10:07;8.70;99.90
41058;DHT22;66768;48.884;2.258;2024-03-02T02:12:35;8.70;99.90
41058;DHT22;66768;48.884;2.258;2024-03-02T02:15:02;8.80;99.90
41058;DHT22;66768;48.884;2.258;2024-03-02T02:17:30;8.70;99.90
41058;DHT22;66768;48.884;2.258;2024-03-02T02:19:57;8.70;99.90
41058;DHT22;66768;48.884;2.258;2024-03-02T02:22:25;8.70;99.90
41058;DHT22;66768;48.884;2.258;2024-03-02T02:24:52;8.70;99.90
41058;DHT22;66768;48.884;2.258;2024-03-02T02:27:19;8.70;99.90
41058;DHT22;66768;48.884;2.258;2024-03-02T02:29:46;8.60;99.90
41058;DHT22;66768;48.884;2.258;2024-03-02T02:32:12;8.60;99.90
41058;DHT22;66768;48.884;2.258;2024-03-02T02:34:39;8.60;99.90
41058;DHT22;66768;48.884;2.258;2024-03-02T02:37:06;8.60;99.90
41058;DHT22;66768;48.884;2.258;2024-03-02T02:39:34;8.60;99.90
41058;DHT22;66768;48.884;2.258;2024-03-02T02:42:00;8.60;99.90
41058;DHT22;66768;48.884;2.258;2024-03-02T02:44:28;8.60;99.90
41058;DHT22;66768;48.884;2.258;2024-03-02T02:46:55;8.60;99.90
41058;DHT22;66768;48.884;2.258;2024-03-02T02:49:22;8.60;99.90
41058;DHT22;66768;48.884;2.258;2024-03-02T02:51:49;8.60;99.90
41058;DHT22;66768;48.884;2.258;2024-03-02T02:54:15;8.60;99.90
41058;DHT22;66768;48.884;2.258;2024-03-02T02:56:44;8.60;99.90
41058;DHT22;66768;48.884;2.258;2024-03-02T02:59:11;8.60;99.90
41058;DHT22;66768;48.884;2.258;2024-03-02T03:01:38;8.60;99.90
41058;DHT22;66768;48.884;2.258;2024-03-02T03:04:05;8.60;99.90
41058;DHT22;66768;48.884;2.258;2024-03-02T03:06:32;8.60;99.90
41058;DHT22;66768;48.884;2.258;2024-03-02T03:08:59;8.60;99.90
41058;DHT22;66768;48.884;2.258;2024-03-02T03:11:26;8.60;99.90
41058;DHT22;66768;48.884;2.258;2024-03-02T03:13:54;8.60;99.90
41058;DHT22;66768;48.884;2.258;2024-03-02T03:16:21;8.50;99.90
41058;DHT22;66768;48.884;2.258;2024-03-02T03:18:48;8.50;99.90
41058;DHT22;66768;48.884;2.258;2024-03-02T03:21:17;8.50;99.90
41058;DHT22;66768;48.884;2.258;2024-03-02T03:23:43;8.50;99.90
41058;DHT22;66768;48.884;2.258;2024-03-02T03:26:10;8.50;99.90
41058;DHT22;66768;48.884;2.258;2024-03-02T03:28:37;8.50;99.90
41058;DHT22;66768;48.884;2.258;2024-03-02T03:31:05;8.40;99.90
41058;DHT22;66768;48.884;2.258;2024-03-02T03:33:32;8.50;99.90
41058;DHT22;66768;48.884;2.258;2024-03-02T03:36:00;8.40;99.90
41058;DHT22;66768;48.884;2.258;2024-03-02T03:38:27;8.30;99.90
41058;DHT22;66768;48.884;2.258;2024-03-02T03:40:54;8.40;99.90
41058;DHT22;66768;48.884;2.258;2024-03-02T03:43:21;8.40;99.90
41058;DHT22;66768;48.884;2.258;2024-03-02T03:45:48;8.40;99.90
41058;DHT22;66768;48.884;2.258;2024-03-02T03:48:16;8.30;99.90
41058;DHT22;66768;48.884;2.258;2024-03-02T03:50:43;8.40;99.90
41058;DHT22;66768;48.884;2.258;2024-03-02T03:53:09;8.40;99.90
41058;DHT22;66768;48.884;2.258;2024-03-02T03:55:36;8.40;99.90
41058;DHT22;66768;48.884;2.258;2024-03-02T03:58:03;8.40;99.90
41058;DHT22;66768;48.884;2.258;2024-03-02T04:00:30;8.40;99.90
41058;DHT22;66768;48.884;2.258;2024-03-02T04:02:57;8.40;99.90
41058;DHT22;66768;48.884;2.258;2024-03-02T04:05:25;8.30;99.90
41058;DHT22;66768;48.884;2.258;2024-03-02T04:07:53;8.40;99.90
41058;DHT22;66768;48.884;2.258;2024-03-02T04:10:19;8.30;99.90
41058;DHT22;66768;48.884;2.258;2024-03-02T04:12:46;8.30;99.90
41058;DHT22;66768;48.884;2.258;2024-03-02T04:15:13;8.30;99.90
41058;DHT22;66768;48.884;2.258;2024-03-02T04:17:40;8.30;99.90
41058;DHT22;66768;48.884;2.258;2024-03-02T04:20:07;8.20;99.90
41058;DHT22;66768;48.884;2.258;2024-03-02T04:22:35;8.30;99.90
41058;DHT22;66768;48.884;2.258;2024-03-02T04:25:03;8.30;99.90
41058;DHT22;66768;48.884;2.258;2024-03-02T04:27:31;8.30;99.90
41058;DHT22;66768;48.884;2.258;2024-03-02T04:29:58;8.30;99.90
41058;DHT22;66768;48.884;2.258;2024-03-02T04:32:26;8.20;99.90
41058;DHT22;66768;48.884;2.258;2024-03-02T04:34:53;8.30;99.90
41058;DHT22;66768;48.884;2.258;2024-03-02T04:37:20;8.30;99.90
41058;DHT22;66768;48.884;2.258;2024-03-02T04:39:48;8.20;99.90
41058;DHT22;66768;48.884;2.258;2024-03-02T04:42:15;8.20;99.90
41058;DHT22;66768;48.884;2.258;2024-03-02T04:44:42;8.30;99.90
41058;DHT22;66768;48.884;2.258;2024-03-02T04:47:09;8.20;99.90
41058;DHT22;66768;48.884;2.258;2024-03-02T04:49:35;8.20;99.90
41058;DHT22;66768;48.884;2.258;2024-03-02T04:52:03;8.20;99.90
41058;DHT22;66768;48.884;2.258;2024-03-02T04:54:30;8.20;99.90
41058;DHT22;66768;48.884;2.258;2024-03-02T04:56:58;8.20;99.90
41058;DHT22;66768;48.884;2.258;2024-03-02T04:59:24;8.20;99.90
41058;DHT22;66768;48.884;2.258;2024-03-02T05:01:51;8.20;99.90
41058;DHT22;66768;48.884;2.258;2024-03-02T05:04:18;8.20;99.90
41058;DHT22;66768;48.884;2.258;2024-03-02T05:06:45;8.20;99.90
41058;DHT22;66768;48.884;2.258;2024-03-02T05:09:17;8.20;99.90
41058;DHT22;66768;48.884;2.258;2024-03-02T05:11:44;8.20;99.90
41058;DHT22;66768;48.884;2.258;2024-03-02T05:14:36;8.10;99.90
41058;DHT22;66768;48.884;2.258;2024-03-02T05:17:04;8.10;99.90
41058;DHT22;66768;48.884;2.258;2024-03-02T05:19:31;8.10;99.90
41058;DHT22;66768;48.884;2.258;2024-03-02T05:21:59;8.10;99.90
41058;DHT22;66768;48.884;2.258;2024-03-02T05:24:26;8.10;99.90
41058;DHT22;66768;48.884;2.258;2024-03-02T05:26:53;8.10;99.90
41058;DHT22;66768;48.884;2.258;2024-03-02T05:29:20;8.20;99.90
41058;DHT22;66768;48.884;2.258;2024-03-02T05:31:49;8.10;99.90
41058;DHT22;66768;48.884;2.258;2024-03-02T05:34:16;8.10;99.90
41058;DHT22;66768;48.884;2.258;2024-03-02T05:36:44;8.10;99.90
41058;DHT22;66768;48.884;2.258;2024-03-02T05:39:11;8.10;99.90
41058;DHT22;66768;48.884;2.258;2024-03-02T05:41:37;8.10;99.90
41058;DHT22;66768;48.884;2.258;2024-03-02T05:44:04;8.10;99.90
41058;DHT22;66768;48.884;2.258;2024-03-02T05:46:31;8.10;99.90
41058;DHT22;66768;48.884;2.258;2024-03-02T05:49:00;8.10;99.90
41058;DHT22;66768;48.884;2.258;2024-03-02T05:51:27;8.10;99.90
41058;DHT22;66768;48.884;2.258;2024-03-02T05:53:53;8.10;99.90
41058;DHT22;66768;48.884;2.258;2024-03-02T05:56:20;8.10;99.90
41058;DHT22;66768;48.884;2.258;2024-03-02T05:58:47;8.10;99.90
41058;DHT22;66768;48.884;2.258;2024-03-02T06:01:26;8.10;99.90
41058;DHT22;66768;48.884;2.258;2024-03-02T06:03:55;8.10;99.90
41058;DHT22;66768;48.884;2.258;2024-03-02T06:06:23;8.10;99.90
41058;DHT22;66768;48.884;2.258;2024-03-02T06:08:50;8.10;99.90
41058;DHT22;66768;48.884;2.258;2024-03-02T06:11:17;8.10;99.90
41058;DHT22;66768;48.884;2.258;2024-03-02T06:13:44;8.20;99.90
41058;DHT22;66768;48.884;2.258;2024-03-02T06:16:10;8.20;99.90
41058;DHT22;66768;48.884;2.258;2024-03-02T06:18:37;8.20;99.90
41058;DHT22;66768;48.884;2.258;2024-03-02T06:21:05;8.20;99.90
41058;DHT22;66768;48.884;2.258;2024-03-02T06:23:33;8.20;99.90
41058;DHT22;66768;48.884;2.258;2024-03-02T06:26:00;8.30;99.90
41058;DHT22;66768;48.884;2.258;2024-03-02T06:28:27;8.30;99.90
41058;DHT22;66768;48.884;2.258;2024-03-02T06:30:54;8.30;99.90
41058;DHT22;66768;48.884;2.258;2024-03-02T06:33:21;8.30;99.90
41058;DHT22;66768;48.884;2.258;2024-03-02T06:35:48;8.30;99.90
41058;DHT22;66768;48.884;2.258;2024-03-02T06:38:15;8.30;99.90
41058;DHT22;66768;48.884;2.258;2024-03-02T06:40:43;8.30;99.90
41058;DHT22;66768;48.884;2.258;2024-03-02T06:43:10;8.30;99.90
41058;DHT22;66768;48.884;2.258;2024-03-02T06:45:37;8.40;99.90
41058;DHT22;66768;48.884;2.258;2024-03-02T06:48:05;8.40;99.90
41058;DHT22;66768;48.884;2.258;2024-03-02T06:50:31;8.30;99.90
41058;DHT22;66768;48.884;2.258;2024-03-02T06:52:58;8.40;99.90
41058;DHT22;66768;48.884;2.258;2024-03-02T06:55:25;8.40;99.90
41058;DHT22;66768;48.884;2.258;2024-03-02T06:57:53;8.40;99.90
41058;DHT22;66768;48.884;2.258;2024-03-02T07:00:20;8.40;99.90
41058;DHT22;66768;48.884;2.258;2024-03-02T07:02:47;8.40;99.90
41058;DHT22;66768;48.884;2.258;2024-03-02T07:05:15;8.50;99.90
41058;DHT22;66768;48.884;2.258;2024-03-02T07:07:42;8.50;99.90
41058;DHT22;66768;48.884;2.258;2024-03-02T07:10:09;8.50;99.90
41058;DHT22;66768;48.884;2.258;2024-03-02T07:12:36;8.50;99.90
41058;DHT22;66768;48.884;2.258;2024-03-02T07:15:05;8.60;99.90
41058;DHT22;66768;48.884;2.258;2024-03-02T07:17:50;8.60;99.90
41058;DHT22;66768;48.884;2.258;2024-03-02T07:20:17;8.60;99.90
41058;DHT22;66768;48.884;2.258;2024-03-02T07:22:44;8.60;99.90
41058;DHT22;66768;48.884;2.258;2024-03-02T07:25:11;8.60;99.90
41058;DHT22;66768;48.884;2.258;2024-03-02T07:27:38;8.60;99.90
41058;DHT22;66768;48.884;2.258;2024-03-02T07:30:07;8.70;99.90
41058;DHT22;66768;48.884;2.258;2024-03-02T07:32:34;8.70;99.90
41058;DHT22;66768;48.884;2.258;2024-03-02T07:35:01;8.70;99.90
41058;DHT22;66768;48.884;2.258;2024-03-02T07:37:29;8.80;99.90
41058;DHT22;66768;48.884;2.258;2024-03-02T07:39:56;8.80;99.90
41058;DHT22;66768;48.884;2.258;2024-03-02T07:42:23;8.80;99.90
41058;DHT22;66768;48.884;2.258;2024-03-02T07:44:49;8.90;99.90
41058;DHT22;66768;48.884;2.258;2024-03-02T07:47:17;8.90;99.90
41058;DHT22;66768;48.884;2.258;2024-03-02T07:49:44;9.00;99.90
41058;DHT22;66768;48.884;2.258;2024-03-02T07:52:12;9.00;99.90
41058;DHT22;66768;48.884;2.258;2024-03-02T07:54:39;9.00;99.90
41058;DHT22;66768;48.884;2.258;2024-03-02T07:57:06;9.00;99.90
41058;DHT22;66768;48.884;2.258;2024-03-02T07:59:34;9.10;99.90
41058;DHT22;66768;48.884;2.258;2024-03-02T08:02:00;9.10;99.90
41058;DHT22;66768;48.884;2.258;2024-03-02T08:04:29;9.10;99.90
41058;DHT22;66768;48.884;2.258;2024-03-02T08:06:56;9.20;99.90
41058;DHT22;66768;48.884;2.258;2024-03-02T08:09:22;9.20;99.90
41058;DHT22;66768;48.884;2.258;2024-03-02T08:11:49;9.30;99.90
41058;DHT22;66768;48.884;2.258;2024-03-02T08:14:16;9.30;99.90
41058;DHT22;66768;48.884;2.258;2024-03-02T08:16:43;9.40;99.90
41058;DHT22;66768;48.884;2.258;2024-03-02T08:19:10;9.40;99.90
41058;DHT22;66768;48.884;2.258;2024-03-02T08:21:38;9.40;99.90
41058;DHT22;66768;48.884;2.258;2024-03-02T08:24:05;9.40;99.90
41058;DHT22;66768;48.884;2.258;2024-03-02T08:26:32;9.50;99.90
41058;DHT22;66768;48.884;2.258;2024-03-02T08:28:59;9.50;99.90
41058;DHT22;66768;48.884;2.258;2024-03-02T08:31:27;9.50;99.90
41058;DHT22;66768;48.884;2.258;2024-03-02T08:33:54;9.50;99.90
41058;DHT22;66768;48.884;2.258;2024-03-02T08:36:21;9.40;99.90
41058;DHT22;66768;48.884;2.258;2024-03-02T08:38:50;9.40;99.90
41058;DHT22;66768;48.884;2.258;2024-03-02T08:41:17;9.40;99.90
41058;DHT22;66768;48.884;2.258;2024-03-02T08:43:44;9.40;99.90
41058;DHT22;66768;48.884;2.258;2024-03-02T08:46:11;9.40;99.90
41058;DHT22;66768;48.884;2.258;2024-03-02T08:48:38;9.40;99.90
41058;DHT22;66768;48.884;2.258;2024-03-02T08:51:04;9.40;99.90
41058;DHT22;66768;48.884;2.258;2024-03-02T08:53:33;9.40;99.90
41058;DHT22;66768;48.884;2.258;2024-03-02T08:56:01;9.40;99.90
41058;DHT22;66768;48.884;2.258;2024-03-02T08:58:31;9.40;99.90
41058;DHT22;66768;48.884;2.258;2024-03-02T09:00:58;9.40;99.90
41058;DHT22;66768;48.884;2.258;2024-03-02T09:03:25;9.40;99.90
41058;DHT22;66768;48.884;2.258;2024-03-02T09:05:51;9.50;99.90
41058;DHT22;66768;48.884;2.258;2024-03-02T09:08:18;9.50;99.90
41058;DHT22;66768;48.884;2.258;2024-03-02T09:10:45;9.40;99.90
41058;DHT22;66768;48.884;2.258;2024-03-02T09:13:13;9.40;99.90
41058;DHT22;66768;48.884;2.258;2024-03-02T09:15:40;9.40;99.90
41058;DHT22;66768;48.884;2.258;2024-03-02T09:18:07;9.40;99.90
41058;DHT22;66768;48.884;2.258;2024-03-02T09:20:34;9.40;99.90
41058;DHT22;66768;48.884;2.258;2024-03-02T09:23:00;9.40;99.90
41058;DHT22;66768;48.884;2.258;2024-03-02T09:25:29;9.40;99.90
41058;DHT22;66768;48.884;2.258;2024-03-02T09:27:56;9.40;99.90
41058;DHT22;66768;48.884;2.258;2024-03-02T09:30:24;9.40;99.90
41058;DHT22;66768;48.884;2.258;2024-03-02T09:32:51;9.40;99.90
41058;DHT22;66768;48.884;2.258;2024-03-02T09:35:18;9.30;99.90
41058;DHT22;66768;48.884;2.258;2024-03-02T09:37:45;9.40;99.90
41058;DHT22;66768;48.884;2.258;2024-03-02T09:40:13;9.30;99.90
41058;DHT22;66768;48.884;2.258;2024-03-02T09:42:40;9.40;99.90
41058;DHT22;66768;48.884;2.258;2024-03-02T09:45:08;9.40;99.90
41058;DHT22;66768;48.884;2.258;2024-03-02T09:47:37;9.40;99.90
41058;DHT22;66768;48.884;2.258;2024-03-02T09:50:04;9.30;99.90
41058;DHT22;66768;48.884;2.258;2024-03-02T09:52:32;9.30;99.90
41058;DHT22;66768;48.884;2.258;2024-03-02T09:54:59;9.30;99.90
41058;DHT22;66768;48.884;2.258;2024-03-02T09:57:26;9.30;99.90
41058;DHT22;66768;48.884;2.258;2024-03-02T09:59:53;9.40;99.90
41058;DHT22;66768;48.884;2.258;2024-03-02T10:02:20;9.40;99.90
41058;DHT22;66768;48.884;2.258;2024-03-02T10:04:49;9.50;99.90
41058;DHT22;66768;48.884;2.258;2024-03-02T10:07:17;9.50;99.90
41058;DHT22;66768;48.884;2.258;2024-03-02T10:09:45;9.60;99.90
41058;DHT22;66768;48.884;2.258;2024-03-02T10:12:13;9.60;99.90
41058;DHT22;66768;48.884;2.258;2024-03-02T10:14:41;9.60;99.90
41058;DHT22;66768;48.884;2.258;2024-03-02T10:17:09;9.60;99.90
41058;DHT22;66768;48.884;2.258;2024-03-02T10:19:36;9.60;99.90
41058;DHT22;66768;48.884;2.258;2024-03-02T10:22:06;9.60;99.90
41058;DHT22;66768;48.884;2.258;2024-03-02T10:24:37;9.70;99.90
41058;DHT22;66768;48.884;2.258;2024-03-02T10:27:08;9.70;99.90
41058;DHT22;66768;48.884;2.258;2024-03-02T10:29:39;9.60;99.90
41058;DHT22;66768;48.884;2.258;2024-03-02T10:32:09;9.70;99.90
41058;DHT22;66768;48.884;2.258;2024-03-02T10:34:37;9.70;99.90
41058;DHT22;66768;48.884;2.258;2024-03-02T10:37:05;9.70;99.90
41058;DHT22;66768;48.884;2.258;2024-03-02T10:39:34;9.70;99.90
41058;DHT22;66768;48.884;2.258;2024-03-02T10:42:03;9.80;99.90
41058;DHT22;66768;48.884;2.258;2024-03-02T10:44:31;9.80;99.90
41058;DHT22;66768;48.884;2.258;2024-03-02T10:47:00;9.80;99.90
41058;DHT22;66768;48.884;2.258;2024-03-02T10:49:29;9.80;99.90
41058;DHT22;66768;48.884;2.258;2024-03-02T10:51:56;9.90;99.90
41058;DHT22;66768;48.884;2.258;2024-03-02T10:54:24;9.90;99.90
41058;DHT22;66768;48.884;2.258;2024-03-02T10:56:56;9.90;99.90
41058;DHT22;66768;48.884;2.258;2024-03-02T10:59:27;10.00;99.90
41058;DHT22;66768;48.884;2.258;2024-03-02T11:01:57;10.00;99.90
41058;DHT22;66768;48.884;2.258;2024-03-02T11:04:25;10.10;99.90
41058;DHT22;66768;48.884;2.258;2024-03-02T11:06:56;10.20;99.90
41058;DHT22;66768;48.884;2.258;2024-03-02T11:09:28;10.20;99.90
41058;DHT22;66768;48.884;2.258;2024-03-02T11:12:02;10.20;99.90
41058;DHT22;66768;48.884;2.258;2024-03-02T11:14:31;10.20;99.90
41058;DHT22;66768;48.884;2.258;2024-03-02T11:17:00;10.20;99.90
41058;DHT22;66768;48.884;2.258;2024-03-02T11:19:29;10.20;99.90
41058;DHT22;66768;48.884;2.258;2024-03-02T11:21:57;10.20;99.90
41058;DHT22;66768;48.884;2.258;2024-03-02T11:24:32;10.20;99.90
41058;DHT22;66768;48.884;2.258;2024-03-02T11:26:59;10.30;99.90
41058;DHT22;66768;48.884;2.258;2024-03-02T11:29:45;10.20;99.90
41058;DHT22;66768;48.884;2.258;2024-03-02T11:32:17;10.30;99.90
41058;DHT22;66768;48.884;2.258;2024-03-02T11:34:45;10.30;99.90
41058;DHT22;66768;48.884;2.258;2024-03-02T11:37:13;10.30;99.90
41058;DHT22;66768;48.884;2.258;2024-03-02T11:39:43;10.30;99.90
41058;DHT22;66768;48.884;2.258;2024-03-02T11:42:11;10.30;99.90
41058;DHT22;66768;48.884;2.258;2024-03-02T11:44:41;10.40;99.90
41058;DHT22;66768;48.884;2.258;2024-03-02T11:47:10;10.40;99.90
41058;DHT22;66768;48.884;2.258;2024-03-02T11:49:40;10.40;99.90
41058;DHT22;66768;48.884;2.258;2024-03-02T11:52:09;10.40;99.90
41058;DHT22;66768;48.884;2.258;2024-03-02T11:54:37;10.40;99.90
41058;DHT22;66768;48.884;2.258;2024-03-02T11:57:07;10.40;99.90
41058;DHT22;66768;48.884;2.258;2024-03-02T11:59:35;10.50;99.90
41058;DHT22;66768;48.884;2.258;2024-03-02T12:02:02;10.50;99.90
41058;DHT22;66768;48.884;2.258;2024-03-02T12:04:29;10.60;99.90
41058;DHT22;66768;48.884;2.258;2024-03-02T12:06:57;10.60;99.90
41058;DHT22;66768;48.884;2.258;2024-03-02T12:09:26;10.60;99.90
41058;DHT22;66768;48.884;2.258;2024-03-02T12:12:04;10.60;99.90
41058;DHT22;66768;48.884;2.258;2024-03-02T12:14:33;10.60;99.90
41058;DHT22;66768;48.884;2.258;2024-03-02T12:17:01;10.60;99.90
41058;DHT22;66768;48.884;2.258;2024-03-02T12:19:29;10.60;99.90
41058;DHT22;66768;48.884;2.258;2024-03-02T12:21:56;10.60;99.90
41058;DHT22;66768;48.884;2.258;2024-03-02T12:24:23;10.60;99.90
41058;DHT22;66768;48.884;2.258;2024-03-02T12:26:51;10.50;99.90
41058;DHT22;66768;48.884;2.258;2024-03-02T12:29:19;10.50;99.90
41058;DHT22;66768;48.884;2.258;2024-03-02T12:31:48;10.40;99.90
41058;DHT22;66768;48.884;2.258;2024-03-02T12:34:16;10.50;99.90
41058;DHT22;66768;48.884;2.258;2024-03-02T12:36:44;10.40;99.90
41058;DHT22;66768;48.884;2.258;2024-03-02T12:39:13;10.50;99.90
41058;DHT22;66768;48.884;2.258;2024-03-02T12:41:40;10.40;99.90
41058;DHT22;66768;48.884;2.258;2024-03-02T12:44:07;10.50;99.90
41058;DHT22;66768;48.884;2.258;2024-03-02T12:46:35;10.40;99.90
41058;DHT22;66768;48.884;2.258;2024-03-02T12:49:08;10.50;99.90
41058;DHT22;66768;48.884;2.258;2024-03-02T12:51:36;10.50;99.90
41058;DHT22;66768;48.884;2.258;2024-03-02T12:54:03;10.40;99.90
41058;DHT22;66768;48.884;2.258;2024-03-02T12:56:31;10.50;99.90
41058;DHT22;66768;48.884;2.258;2024-03-02T12:58:59;10.50;99.90
41058;DHT22;66768;48.884;2.258;2024-03-02T13:01:26;10.50;99.90
41058;DHT22;66768;48.884;2.258;2024-03-02T13:03:53;10.50;99.90
41058;DHT22;66768;48.884;2.258;2024-03-02T13:06:23;10.50;99.90
41058;DHT22;66768;48.884;2.258;2024-03-02T13:08:50;10.50;99.90
41058;DHT22;66768;48.884;2.258;2024-03-02T13:11:17;10.60;99.90
41058;DHT22;66768;48.884;2.258;2024-03-02T13:13:43;10.60;99.90
41058;DHT22;66768;48.884;2.258;2024-03-02T13:16:11;10.50;99.90
41058;DHT22;66768;48.884;2.258;2024-03-02T13:18:38;10.50;99.90
41058;DHT22;66768;48.884;2.258;2024-03-02T13:21:06;10.60;99.90
41058;DHT22;66768;48.884;2.258;2024-03-02T13:23:34;10.60;99.90
41058;DHT22;66768;48.884;2.258;2024-03-02T13:26:01;10.60;99.90
41058;DHT22;66768;48.884;2.258;2024-03-02T13:28:28;10.60;99.90
41058;DHT22;66768;48.884;2.258;2024-03-02T13:30:54;10.60;99.90
41058;DHT22;66768;48.884;2.258;2024-03-02T13:33:21;10.60;99.90
41058;DHT22;66768;48.884;2.258;2024-03-02T13:35:49;10.60;99.90
41058;DHT22;66768;48.884;2.258;2024-03-02T13:38:16;10.50;99.90
41058;DHT22;66768;48.884;2.258;2024-03-02T13:40:45;10.60;99.90
41058;DHT22;66768;48.884;2.258;2024-03-02T13:43:12;10.50;99.90
41058;DHT22;66768;48.884;2.258;2024-03-02T13:45:39;10.40;99.90
41058;DHT22;66768;48.884;2.258;2024-03-02T13:48:06;10.40;99.90
41058;DHT22;66768;48.884;2.258;2024-03-02T13:50:33;10.40;99.90
41058;DHT22;66768;48.884;2.258;2024-03-02T13:53:00;10.40;99.90
41058;DHT22;66768;48.884;2.258;2024-03-02T13:55:28;10.40;99.90
41058;DHT22;66768;48.884;2.258;2024-03-02T13:57:56;10.50;99.90
41058;DHT22;66768;48.884;2.258;2024-03-02T14:00:23;10.40;99.90
41058;DHT22;66768;48.884;2.258;2024-03-02T14:02:50;10.40;99.90
41058;DHT22;66768;48.884;2.258;2024-03-02T14:05:17;10.40;99.90
41058;DHT22;66768;48.884;2.258;2024-03-02T14:07:45;10.40;99.90
41058;DHT22;66768;48.884;2.258;2024-03-02T14:10:11;10.40;99.90
41058;DHT22;66768;48.884;2.258;2024-03-02T14:12:40;10.40;99.90
41058;DHT22;66768;48.884;2.258;2024-03-02T14:15:09;10.40;99.90
41058;DHT22;66768;48.884;2.258;2024-03-02T14:17:36;10.40;99.90
41058;DHT22;66768;48.884;2.258;2024-03-02T14:20:03;10.40;99.90
41058;DHT22;66768;48.884;2.258;2024-03-02T14:22:31;10.40;99.90
41058;DHT22;66768;48.884;2.258;2024-03-02T14:24:59;10.30;99.90
41058;DHT22;66768;48.884;2.258;2024-03-02T14:27:26;10.30;99.90
41058;DHT22;66768;48.884;2.258;2024-03-02T14:29:53;10.30;99.90
41058;DHT22;66768;48.884;2.258;2024-03-02T14:32:22;10.30;99.90
41058;DHT22;66768;48.884;2.258;2024-03-02T14:34:48;10.30;99.90
41058;DHT22;66768;48.884;2.258;2024-03-02T14:37:15;10.30;99.90
41058;DHT22;66768;48.884;2.258;2024-03-02T14:39:42;10.30;99.90
41058;DHT22;66768;48.884;2.258;2024-03-02T14:42:09;10.30;99.90
41058;DHT22;66768;48.884;2.258;2024-03-02T14:44:36;10.30;99.90
41058;DHT22;66768;48.884;2.258;2024-03-02T14:47:04;10.30;99.90
41058;DHT22;66768;48.884;2.258;2024-03-02T14:49:32;10.30;99.90
41058;DHT22;66768;48.884;2.258;2024-03-02T14:52:02;10.30;99.90
41058;DHT22;66768;48.884;2.258;2024-03-02T14:54:29;10.30;99.90
41058;DHT22;66768;48.884;2.258;2024-03-02T14:56:56;10.30;99.90
41058;DHT22;66768;48.884;2.258;2024-03-02T14:59:23;10.30;99.90
41058;DHT22;66768;48.884;2.258;2024-03-02T15:01:50;10.30;99.90
41058;DHT22;66768;48.884;2.258;2024-03-02T15:04:17;10.30;99.90
41058;DHT22;66768;48.884;2.258;2024-03-02T15:06:47;10.30;99.90
41058;DHT22;66768;48.884;2.258;2024-03-02T15:09:14;10.20;99.90
41058;DHT22;66768;48.884;2.258;2024-03-02T15:11:44;10.20;99.90
41058;DHT22;66768;48.884;2.258;2024-03-02T15:14:11;10.30;99.90
41058;DHT22;66768;48.884;2.258;2024-03-02T15:16:38;10.30;99.90
41058;DHT22;66768;48.884;2.258;2024-03-02T15:19:05;10.30;99.90
41058;DHT22;66768;48.884;2.258;2024-03-02T15:21:32;10.30;99.90
41058;DHT22;66768;48.884;2.258;2024-03-02T15:24:01;10.30;99.90
41058;DHT22;66768;48.884;2.258;2024-03-02T15:26:28;10.30;99.90
41058;DHT22;66768;48.884;2.258;2024-03-02T15:28:55;10.30;99.90
41058;DHT22;66768;48.884;2.258;2024-03-02T15:31:24;10.30;99.90
41058;DHT22;66768;48.884;2.258;2024-03-02T15:33:52;10.30;99.90
41058;DHT22;66768;48.884;2.258;2024-03-02T15:36:21;10.30;99.90
41058;DHT22;66768;48.884;2.258;2024-03-02T15:38:48;10.20;99.90
41058;DHT22;66768;48.884;2.258;2024-03-02T15:41:16;10.20;99.90
41058;DHT22;66768;48.884;2.258;2024-03-02T15:43:43;10.20;99.90
41058;DHT22;66768;48.884;2.258;2024-03-02T15:46:09;10.20;99.90